Time;durP1;ratioP1;P1;durP2;ratioP2;P2;SDS_P1;SDS_P2;PMS_P1;PMS_P2;Temp;Humidity;BMP_temperature;BMP_pressure;BME280_temperature;BME280_humidity;BME280_pressure;Samples;Min_cycle;Max_cycle;Signal;HPM_P1;HPM_P2
2022/09/22 00:01:17;;;;;;;12.23;8.07;;;;;;;;;;4987137;28;20049;-61
2022/09/22 00:03:47;;;;;;;15.57;9.07;;;;;;;;;;5016381;28;20117;-62
2022/09/22 00:06:18;;;;;;;13.07;9.30;;;;;;;;;;5009298;28;20033;-61
2022/09/22 00:08:47;;;;;;;14.82;9.57;;;;;;;;;;5018837;28;20036;-61
2022/09/22 00:11:27;;;;;;;16.63;9.73;;;;;;;;;;5011862;28;20030;-61
2022/09/22 00:13:54;;;;;;;14.13;9.73;;;;;;;;;;5022945;28;20096;-61
2022/09/22 00:16:29;;;;;;;14.73;9.25;;;;;;;;;;5011345;28;20693;-59
2022/09/22 00:18:54;;;;;;;14.57;9.75;;;;;;;;;;5005307;28;20049;-60
2022/09/22 00:21:23;;;;;;;13.27;9.32;;;;;;;;;;5010704;28;20589;-61
2022/09/22 00:23:50;;;;;;;16.67;9.57;;;;;;;;;;4996020;28;20047;-61
2022/09/22 00:26:18;;;;;;;15.02;10.52;;;;;;;;;;5010378;28;20030;-61
2022/09/22 00:28:44;;;;;;;14.30;10.00;;;;;;;;;;5024265;28;20025;-62
2022/09/22 00:31:16;;;;;;;16.35;10.00;;;;;;;;;;4999314;28;20034;-61
2022/09/22 00:33:43;;;;;;;14.00;9.95;;;;;;;;;;5032827;28;20037;-61
2022/09/22 00:36:09;;;;;;;15.35;9.63;;;;;;;;;;5012341;28;20030;-60
2022/09/22 00:38:37;;;;;;;15.18;10.02;;;;;;;;;;5010519;28;20451;-60
2022/09/22 00:41:04;;;;;;;16.00;10.00;;;;;;;;;;5011678;28;20037;-60
2022/09/22 00:43:34;;;;;;;13.50;9.57;;;;;;;;;;5022723;28;20077;-60
2022/09/22 00:46:22;;;;;;;15.23;9.57;;;;;;;;;;5005159;28;20022;-60
2022/09/22 00:48:51;;;;;;;14.27;10.07;;;;;;;;;;5012579;28;20133;-60
2022/09/22 00:51:23;;;;;;;12.35;9.43;;;;;;;;;;5007021;28;20026;-61
2022/09/22 00:53:49;;;;;;;13.70;9.55;;;;;;;;;;5014073;28;20038;-61
2022/09/22 00:56:18;;;;;;;13.48;9.82;;;;;;;;;;4996373;28;20036;-61
2022/09/22 00:58:53;;;;;;;14.32;10.15;;;;;;;;;;5013598;28;20148;-61
2022/09/22 01:01:18;;;;;;;15.02;9.85;;;;;;;;;;5016279;28;20026;-62
2022/09/22 01:03:45;;;;;;;15.27;9.55;;;;;;;;;;4994469;28;20475;-61
2022/09/22 01:06:15;;;;;;;13.70;9.20;;;;;;;;;;5011401;28;20144;-61
2022/09/22 01:08:42;;;;;;;16.08;9.50;;;;;;;;;;4994208;28;20034;-61
2022/09/22 01:11:08;;;;;;;13.90;9.23;;;;;;;;;;4995732;28;20029;-61
2022/09/22 01:13:48;;;;;;;15.68;9.38;;;;;;;;;;5009450;28;20455;-61
2022/09/22 01:16:34;;;;;;;12.55;8.95;;;;;;;;;;4991568;28;20038;-61
2022/09/22 01:19:25;;;;;;;13.40;9.23;;;;;;;;;;5024381;28;20060;-61
2022/09/22 01:21:50;;;;;;;16.25;9.50;;;;;;;;;;5006887;28;20042;-60
2022/09/22 01:24:39;;;;;;;13.13;8.98;;;;;;;;;;5004247;28;20059;-60
2022/09/22 01:27:14;;;;;;;15.77;9.43;;;;;;;;;;4984970;28;20472;-60
2022/09/22 01:30:04;;;;;;;13.32;9.98;;;;;;;;;;5009688;28;20116;-60
2022/09/22 01:33:02;;;;;;;16.70;9.52;;;;;;;;;;5009946;28;20121;-60
2022/09/22 01:35:47;;;;;;;17.17;10.27;;;;;;;;;;5022349;28;20029;-60
2022/09/22 01:38:30;;;;;;;14.20;9.98;;;;;;;;;;5010529;28;20026;-59
2022/09/22 01:41:23;;;;;;;15.00;9.57;;;;;;;;;;5006989;28;20053;-60
2022/09/22 01:43:54;;;;;;;14.30;9.45;;;;;;;;;;5008716;28;20056;-60
2022/09/22 01:46:27;;;;;;;14.77;9.20;;;;;;;;;;5012990;28;20109;-61
2022/09/22 01:48:55;;;;;;;15.10;9.63;;;;;;;;;;4997600;28;20097;-61
2022/09/22 01:51:27;;;;;;;13.57;9.15;;;;;;;;;;5009134;28;20048;-61
2022/09/22 01:53:59;;;;;;;14.35;9.90;;;;;;;;;;5011735;28;20383;-61
2022/09/22 01:56:27;;;;;;;15.18;10.40;;;;;;;;;;5005268;28;20062;-61
2022/09/22 01:58:56;;;;;;;16.55;9.93;;;;;;;;;;5010475;28;20076;-60
2022/09/22 02:01:29;;;;;;;15.30;9.10;;;;;;;;;;5010732;28;20018;-60
2022/09/22 02:03:54;;;;;;;14.13;9.50;;;;;;;;;;5015289;28;20049;-60
2022/09/22 02:06:24;;;;;;;13.70;10.13;;;;;;;;;;5009794;28;20538;-60
2022/09/22 02:08:55;;;;;;;16.23;10.85;;;;;;;;;;5016062;28;20042;-61
2022/09/22 02:11:21;;;;;;;16.58;10.52;;;;;;;;;;5009895;28;20040;-61
2022/09/22 02:13:47;;;;;;;16.52;11.43;;;;;;;;;;5008122;28;20088;-61
2022/09/22 02:16:15;;;;;;;19.23;11.15;;;;;;;;;;5009468;28;20034;-61
2022/09/22 02:18:47;;;;;;;18.27;10.20;;;;;;;;;;5008333;28;20443;-60
2022/09/22 02:21:13;;;;;;;13.35;9.93;;;;;;;;;;5011201;28;20040;-60
2022/09/22 02:23:40;;;;;;;14.32;10.65;;;;;;;;;;5011564;28;20037;-60
2022/09/22 02:26:07;;;;;;;15.43;10.90;;;;;;;;;;5003182;28;20034;-62
2022/09/22 02:28:37;;;;;;;14.27;10.13;;;;;;;;;;5014418;28;20144;-61
2022/09/22 02:31:04;;;;;;;14.63;9.93;;;;;;;;;;5015355;28;20356;-61
2022/09/22 02:33:33;;;;;;;15.30;9.73;;;;;;;;;;5012904;28;20374;-60
2022/09/22 02:36:19;;;;;;;15.57;10.60;;;;;;;;;;5012363;28;20121;-60
2022/09/22 02:39:08;;;;;;;17.48;10.40;;;;;;;;;;5014756;28;20117;-60
2022/09/22 02:41:54;;;;;;;18.95;11.25;;;;;;;;;;5013126;28;20048;-60
2022/09/22 02:44:38;;;;;;;14.75;10.52;;;;;;;;;;5017784;28;20061;-60
2022/09/22 02:47:15;;;;;;;13.63;10.00;;;;;;;;;;4995145;28;20102;-60
2022/09/22 02:49:42;;;;;;;17.17;9.95;;;;;;;;;;5012589;28;20037;-61
2022/09/22 02:52:11;;;;;;;16.23;10.60;;;;;;;;;;4998791;28;20096;-60
2022/09/22 02:54:38;;;;;;;14.00;9.60;;;;;;;;;;5031842;28;20037;-62
2022/09/22 02:57:04;;;;;;;16.40;10.30;;;;;;;;;;5012666;28;20029;-60
2022/09/22 02:59:29;;;;;;;15.05;10.82;;;;;;;;;;5013476;28;20092;-61
2022/09/22 03:01:55;;;;;;;16.38;11.65;;;;;;;;;;4995441;28;20435;-61
2022/09/22 03:04:20;;;;;;;15.00;10.88;;;;;;;;;;5006485;28;20034;-60
2022/09/22 03:06:45;;;;;;;19.90;11.57;;;;;;;;;;5006058;28;20045;-60
2022/09/22 03:09:11;;;;;;;15.95;10.90;;;;;;;;;;5013439;28;20041;-61
2022/09/22 03:11:36;;;;;;;15.70;11.13;;;;;;;;;;5019393;28;20168;-61
2022/09/22 03:14:02;;;;;;;19.40;10.35;;;;;;;;;;5014333;28;20386;-61
2022/09/22 03:16:27;;;;;;;15.00;10.43;;;;;;;;;;4997724;28;20042;-60
2022/09/22 03:19:02;;;;;;;16.73;10.90;;;;;;;;;;5012672;28;20045;-60
2022/09/22 03:21:27;;;;;;;18.65;10.95;;;;;;;;;;5046074;28;20360;-60
2022/09/22 03:23:52;;;;;;;18.90;11.70;;;;;;;;;;5033161;28;20056;-60
2022/09/22 03:26:18;;;;;;;16.70;11.00;;;;;;;;;;5021399;28;20379;-60
2022/09/22 03:28:43;;;;;;;19.25;12.07;;;;;;;;;;5033082;28;20057;-60
2022/09/22 03:31:10;;;;;;;19.33;10.88;;;;;;;;;;5025806;28;20451;-60
2022/09/22 03:33:36;;;;;;;17.52;11.20;;;;;;;;;;5030398;28;20034;-60
2022/09/22 03:36:02;;;;;;;16.38;10.98;;;;;;;;;;5031227;28;20377;-60
2022/09/22 03:38:28;;;;;;;17.05;11.35;;;;;;;;;;5033273;28;20048;-60
2022/09/22 03:40:53;;;;;;;17.15;11.05;;;;;;;;;;5040657;28;20029;-60
2022/09/22 03:43:19;;;;;;;16.58;10.80;;;;;;;;;;5030319;28;20030;-60
2022/09/22 03:45:45;;;;;;;17.83;11.45;;;;;;;;;;5039417;28;20044;-60
2022/09/22 03:48:11;;;;;;;15.63;10.85;;;;;;;;;;5013373;28;20033;-60
2022/09/22 03:50:36;;;;;;;15.05;10.05;;;;;;;;;;5034937;28;20116;-60
2022/09/22 03:53:01;;;;;;;18.20;10.88;;;;;;;;;;5031581;28;20453;-60
2022/09/22 03:55:27;;;;;;;18.13;10.82;;;;;;;;;;5042119;28;20025;-60
2022/09/22 03:57:52;;;;;;;15.40;10.43;;;;;;;;;;5038536;28;20075;-60
2022/09/22 04:00:17;;;;;;;15.43;10.23;;;;;;;;;;5030198;28;20033;-60
2022/09/22 04:02:43;;;;;;;14.68;10.18;;;;;;;;;;5022008;28;20033;-60
2022/09/22 04:05:09;;;;;;;19.55;9.68;;;;;;;;;;5028866;28;20032;-61
2022/09/22 04:07:35;;;;;;;18.63;9.82;;;;;;;;;;5045259;28;20040;-61
2022/09/22 04:10:01;;;;;;;13.65;9.75;;;;;;;;;;5036487;28;20034;-60
2022/09/22 04:12:26;;;;;;;14.52;9.98;;;;;;;;;;5031469;28;20061;-60
2022/09/22 04:14:52;;;;;;;15.38;10.27;;;;;;;;;;5023025;28;20029;-59
2022/09/22 04:17:19;;;;;;;14.88;9.70;;;;;;;;;;5025288;28;20029;-61
2022/09/22 04:19:45;;;;;;;15.15;8.88;;;;;;;;;;4985357;28;1100302;-60
2022/09/22 04:22:11;;;;;;;15.50;9.48;;;;;;;;;;5012669;28;20069;-60
2022/09/22 04:24:36;;;;;;;15.48;9.30;;;;;;;;;;5020641;28;20064;-60
2022/09/22 04:27:02;;;;;;;17.60;9.50;;;;;;;;;;5010068;28;20026;-60
2022/09/22 04:29:27;;;;;;;15.75;9.48;;;;;;;;;;5014896;28;20034;-59
2022/09/22 04:31:52;;;;;;;15.10;9.70;;;;;;;;;;5011891;28;20034;-60
2022/09/22 04:34:18;;;;;;;15.20;9.55;;;;;;;;;;5008040;28;20046;-62
2022/09/22 04:36:43;;;;;;;16.30;9.02;;;;;;;;;;5010572;28;20482;-62
2022/09/22 04:39:08;;;;;;;14.25;9.48;;;;;;;;;;5008372;28;20045;-62
2022/09/22 04:41:34;;;;;;;15.63;9.30;;;;;;;;;;5011761;28;20041;-60
2022/09/22 04:44:00;;;;;;;14.57;9.85;;;;;;;;;;5012321;28;20062;-61
2022/09/22 04:46:26;;;;;;;16.05;9.10;;;;;;;;;;4999831;28;20034;-61
2022/09/22 04:48:51;;;;;;;15.30;9.75;;;;;;;;;;5013339;28;20041;-61
2022/09/22 04:51:16;;;;;;;18.52;10.35;;;;;;;;;;5020603;28;20040;-61
2022/09/22 04:53:42;;;;;;;16.65;9.02;;;;;;;;;;5015826;28;20125;-61
2022/09/22 04:56:07;;;;;;;16.75;8.70;;;;;;;;;;5019027;28;20045;-60
2022/09/22 04:58:32;;;;;;;14.13;9.02;;;;;;;;;;5013396;28;20061;-60
2022/09/22 05:01:02;;;;;;;14.27;8.45;;;;;;;;;;5026865;28;20053;-60
2022/09/22 05:03:28;;;;;;;13.50;8.95;;;;;;;;;;5020785;28;20041;-60
2022/09/22 05:05:54;;;;;;;15.00;8.35;;;;;;;;;;5027480;28;20102;-60
2022/09/22 05:08:19;;;;;;;17.60;9.18;;;;;;;;;;5029972;28;20038;-60
2022/09/22 05:10:45;;;;;;;13.93;8.32;;;;;;;;;;5030017;28;20099;-60
2022/09/22 05:13:12;;;;;;;17.23;9.25;;;;;;;;;;5031248;28;20140;-60
2022/09/22 05:15:38;;;;;;;17.15;9.30;;;;;;;;;;5028536;28;20030;-60
2022/09/22 05:18:04;;;;;;;17.77;8.90;;;;;;;;;;5030728;28;20479;-60
2022/09/22 05:20:29;;;;;;;16.70;8.50;;;;;;;;;;5020081;28;20045;-61
2022/09/22 05:22:54;;;;;;;13.25;8.60;;;;;;;;;;5031518;28;20084;-60
2022/09/22 05:25:20;;;;;;;14.93;8.80;;;;;;;;;;5025769;28;20331;-65
2022/09/22 05:27:47;;;;;;;16.70;9.73;;;;;;;;;;4998195;28;20050;-64
2022/09/22 05:30:13;;;;;;;15.95;9.65;;;;;;;;;;4995618;28;20466;-64
2022/09/22 05:32:42;;;;;;;15.30;9.23;;;;;;;;;;5016973;28;20080;-64
2022/09/22 05:35:09;;;;;;;16.42;9.48;;;;;;;;;;5008833;28;20033;-61
2022/09/22 05:37:35;;;;;;;15.48;9.35;;;;;;;;;;5011268;28;20060;-61
2022/09/22 05:40:00;;;;;;;15.07;9.05;;;;;;;;;;5009658;28;20065;-62
2022/09/22 05:42:26;;;;;;;14.68;8.45;;;;;;;;;;4992135;28;20038;-63
2022/09/22 05:44:51;;;;;;;17.20;9.30;;;;;;;;;;5022059;28;20032;-63
2022/09/22 05:47:16;;;;;;;13.20;9.30;;;;;;;;;;5030643;28;20025;-63
2022/09/22 05:49:42;;;;;;;14.43;8.70;;;;;;;;;;5030097;28;20037;-63
2022/09/22 05:52:07;;;;;;;14.68;8.43;;;;;;;;;;5029409;28;20033;-63
2022/09/22 05:54:33;;;;;;;13.70;8.85;;;;;;;;;;5010517;28;20077;-62
2022/09/22 05:56:58;;;;;;;13.10;8.75;;;;;;;;;;5029783;28;20124;-62
2022/09/22 05:59:23;;;;;;;13.55;8.98;;;;;;;;;;5030416;28;20560;-62
2022/09/22 06:01:49;;;;;;;18.08;8.70;;;;;;;;;;5015249;28;20038;-64
2022/09/22 06:04:14;;;;;;;18.00;9.70;;;;;;;;;;5008837;28;20030;-64
2022/09/22 06:06:40;;;;;;;18.10;9.25;;;;;;;;;;5018718;28;20029;-63
2022/09/22 06:09:06;;;;;;;16.48;9.75;;;;;;;;;;5029101;28;20088;-63
2022/09/22 06:11:31;;;;;;;15.57;10.25;;;;;;;;;;5020226;28;20037;-64
2022/09/22 06:13:57;;;;;;;17.77;11.13;;;;;;;;;;5031342;28;20029;-63
2022/09/22 06:16:23;;;;;;;18.77;11.68;;;;;;;;;;5010003;28;20179;-62
2022/09/22 06:18:48;;;;;;;19.52;10.60;;;;;;;;;;5030952;28;20116;-63
2022/09/22 06:21:15;;;;;;;17.08;10.25;;;;;;;;;;5010663;28;20117;-63
2022/09/22 06:23:41;;;;;;;16.92;10.10;;;;;;;;;;5020190;28;20073;-62
2022/09/22 06:26:07;;;;;;;15.13;10.00;;;;;;;;;;5012011;28;20454;-61
2022/09/22 06:28:32;;;;;;;20.98;10.52;;;;;;;;;;4991358;28;20058;-62
2022/09/22 06:30:59;;;;;;;18.25;10.95;;;;;;;;;;5018421;28;20061;-61
2022/09/22 06:33:25;;;;;;;21.08;11.77;;;;;;;;;;5030414;28;20548;-62
2022/09/22 06:35:50;;;;;;;17.58;11.63;;;;;;;;;;5029047;28;20462;-61
2022/09/22 06:38:16;;;;;;;25.00;13.32;;;;;;;;;;5026331;28;20104;-63
2022/09/22 06:40:42;;;;;;;22.50;12.85;;;;;;;;;;5021363;28;20045;-59
2022/09/22 06:43:14;;;;;;;19.15;11.77;;;;;;;;;;5026675;28;20061;-62
2022/09/22 06:45:41;;;;;;;20.00;11.93;;;;;;;;;;5024288;28;20453;-60
2022/09/22 06:48:09;;;;;;;18.98;10.98;;;;;;;;;;5029929;28;20454;-62
2022/09/22 06:50:34;;;;;;;19.58;11.90;;;;;;;;;;5027496;28;20031;-61
2022/09/22 06:53:02;;;;;;;18.77;12.73;;;;;;;;;;5029587;28;20108;-62
2022/09/22 06:55:28;;;;;;;22.20;12.27;;;;;;;;;;5029753;28;20121;-61
2022/09/22 06:57:58;;;;;;;18.73;12.32;;;;;;;;;;5030878;28;20131;-61
2022/09/22 07:00:31;;;;;;;17.77;12.15;;;;;;;;;;5021645;28;20170;-62
2022/09/22 07:03:15;;;;;;;24.45;12.45;;;;;;;;;;5025842;28;20061;-62
2022/09/22 07:05:42;;;;;;;22.52;12.00;;;;;;;;;;5029895;28;20033;-61
2022/09/22 07:08:08;;;;;;;19.13;11.20;;;;;;;;;;5027028;28;20030;-62
2022/09/22 07:10:36;;;;;;;16.20;10.70;;;;;;;;;;5029305;28;20040;-62
2022/09/22 07:13:04;;;;;;;15.40;9.95;;;;;;;;;;5014901;28;20033;-62
2022/09/22 07:15:30;;;;;;;18.85;10.05;;;;;;;;;;5009926;28;20081;-61
2022/09/22 07:17:56;;;;;;;17.77;10.00;;;;;;;;;;4997433;28;20041;-62
2022/09/22 07:20:22;;;;;;;15.70;9.57;;;;;;;;;;5045885;28;20036;-62
2022/09/22 07:22:47;;;;;;;16.98;9.73;;;;;;;;;;5036897;28;20029;-61
2022/09/22 07:25:13;;;;;;;14.43;9.75;;;;;;;;;;5031052;28;20038;-61
2022/09/22 07:27:38;;;;;;;16.40;9.10;;;;;;;;;;5035140;28;20045;-62
2022/09/22 07:30:04;;;;;;;17.50;9.30;;;;;;;;;;5052932;28;20025;-62
2022/09/22 07:32:33;;;;;;;15.95;8.50;;;;;;;;;;5050919;28;20080;-62
2022/09/22 07:35:00;;;;;;;12.82;8.48;;;;;;;;;;5027505;28;20128;-63
2022/09/22 07:37:28;;;;;;;15.35;7.85;;;;;;;;;;5032290;28;20048;-62
2022/09/22 07:39:54;;;;;;;12.43;7.97;;;;;;;;;;5039753;28;20065;-63
2022/09/22 07:42:20;;;;;;;10.52;7.28;;;;;;;;;;5039278;28;20168;-61
2022/09/22 07:50:15;;;;;;;13.20;6.97;;;;;;;;;;5052667;28;20032;-61
2022/09/22 07:52:40;;;;;;;11.65;6.60;;;;;;;;;;5047822;28;20044;-62
2022/09/22 07:55:06;;;;;;;11.43;6.55;;;;;;;;;;5034740;28;20386;-61
2022/09/22 07:57:32;;;;;;;11.15;6.30;;;;;;;;;;5041625;28;20029;-61
2022/09/22 07:59:58;;;;;;;9.80;6.00;;;;;;;;;;5034618;28;20102;-61
2022/09/22 08:02:26;;;;;;;14.48;6.07;;;;;;;;;;5040634;28;20140;-61
2022/09/22 08:04:51;;;;;;;10.23;6.05;;;;;;;;;;5053466;28;20032;-61
2022/09/22 08:07:17;;;;;;;9.55;5.53;;;;;;;;;;5041986;28;20032;-62
2022/09/22 08:09:42;;;;;;;9.15;5.30;;;;;;;;;;5032837;28;20069;-61
2022/09/22 08:12:08;;;;;;;8.60;5.45;;;;;;;;;;5050749;28;20460;-61
2022/09/22 08:14:34;;;;;;;12.82;5.20;;;;;;;;;;5051306;28;20084;-61
2022/09/22 08:16:59;;;;;;;11.77;5.38;;;;;;;;;;5031361;28;20425;-62
2022/09/22 08:19:25;;;;;;;8.13;5.07;;;;;;;;;;5051221;28;20055;-62
2022/09/22 08:21:52;;;;;;;11.15;4.70;;;;;;;;;;5053055;28;20033;-61
2022/09/22 08:24:21;;;;;;;8.90;3.78;;;;;;;;;;5046611;28;20037;-61
2022/09/22 08:26:49;;;;;;;5.18;3.10;;;;;;;;;;5044194;28;20033;-62
2022/09/22 08:29:15;;;;;;;7.03;3.67;;;;;;;;;;5021988;28;20034;-64
2022/09/22 08:31:41;;;;;;;6.85;3.75;;;;;;;;;;5046905;28;20032;-63
2022/09/22 08:34:10;;;;;;;6.70;3.80;;;;;;;;;;5052094;28;20048;-62
2022/09/22 08:36:36;;;;;;;7.90;3.70;;;;;;;;;;5043552;28;21957;-62
2022/09/22 08:39:02;;;;;;;7.10;3.80;;;;;;;;;;5025685;28;20117;-62
2022/09/22 08:41:43;;;;;;;10.05;4.07;;;;;;;;;;5050165;28;20040;-62
2022/09/22 08:44:09;;;;;;;7.18;4.25;;;;;;;;;;5051154;28;20080;-62
2022/09/22 08:46:45;;;;;;;5.63;4.00;;;;;;;;;;5047454;28;20029;-61
2022/09/22 08:52:52;;;;;;;6.10;4.00;;;;;;;;;;5051595;28;20106;-61
2022/09/22 08:55:24;;;;;;;7.72;3.78;;;;;;;;;;5051514;28;20524;-62
2022/09/22 08:58:08;;;;;;;6.15;4.15;;;;;;;;;;5038807;28;20089;-62
2022/09/22 09:00:41;;;;;;;6.97;3.95;;;;;;;;;;5018667;28;20034;-62
2022/09/22 09:03:34;;;;;;;6.43;3.80;;;;;;;;;;5029181;28;20026;-62
2022/09/22 09:06:40;;;;;;;8.65;3.72;;;;;;;;;;5032716;28;20088;-61
2022/09/22 09:09:15;;;;;;;7.03;3.40;;;;;;;;;;5016357;28;20045;-61
2022/09/22 09:12:13;;;;;;;8.77;3.67;;;;;;;;;;5035032;28;20036;-61
2022/09/22 09:14:57;;;;;;;7.15;4.15;;;;;;;;;;5044897;28;20069;-61
2022/09/22 09:17:29;;;;;;;7.07;3.78;;;;;;;;;;5042549;28;20058;-61
2022/09/22 09:20:15;;;;;;;6.10;3.80;;;;;;;;;;5033141;28;20108;-61
2022/09/22 09:22:47;;;;;;;6.13;3.35;;;;;;;;;;5036110;28;20032;-61
2022/09/22 09:25:25;;;;;;;7.43;3.17;;;;;;;;;;5019118;28;20033;-60
2022/09/22 09:27:55;;;;;;;6.53;3.17;;;;;;;;;;5025618;28;20036;-62
2022/09/22 09:30:21;;;;;;;7.55;3.63;;;;;;;;;;5038743;28;20056;-61
2022/09/22 09:32:51;;;;;;;9.00;3.58;;;;;;;;;;5030198;28;20037;-62
2022/09/22 09:35:23;;;;;;;7.18;3.60;;;;;;;;;;5039040;28;20433;-62
2022/09/22 09:37:50;;;;;;;8.30;3.53;;;;;;;;;;5006921;28;20042;-62
2022/09/22 09:40:19;;;;;;;6.82;3.33;;;;;;;;;;5026344;28;20026;-61
2022/09/22 09:43:04;;;;;;;5.13;3.10;;;;;;;;;;5031467;28;20040;-62
2022/09/22 09:45:40;;;;;;;4.15;2.60;;;;;;;;;;5042876;28;20549;-61
2022/09/22 09:48:33;;;;;;;4.43;2.90;;;;;;;;;;5035723;28;20104;-61
2022/09/22 09:51:04;;;;;;;8.82;3.22;;;;;;;;;;5011801;28;20041;-62
2022/09/22 09:53:37;;;;;;;6.78;3.22;;;;;;;;;;5039240;28;20033;-61
2022/09/22 09:56:18;;;;;;;5.47;2.70;;;;;;;;;;5049168;28;20033;-61
2022/09/22 10:01:41;;;;;;;5.90;2.63;;;;;;;;;;5050460;28;20387;-61
2022/09/22 10:04:36;;;;;;;5.10;2.85;;;;;;;;;;5047949;28;20025;-62
2022/09/22 10:07:24;;;;;;;5.38;2.97;;;;;;;;;;5040900;28;20272;-61
2022/09/22 10:09:50;;;;;;;4.15;2.50;;;;;;;;;;5022467;28;20509;-61
2022/09/22 10:12:27;;;;;;;7.35;2.80;;;;;;;;;;5047329;28;20076;-62
2022/09/22 10:15:02;;;;;;;5.68;2.55;;;;;;;;;;5030219;28;20076;-61
2022/09/22 10:17:32;;;;;;;3.03;2.10;;;;;;;;;;5043654;28;20029;-62
2022/09/22 10:20:32;;;;;;;7.05;2.33;;;;;;;;;;5023107;28;20054;-61
2022/09/22 10:23:20;;;;;;;5.28;2.40;;;;;;;;;;5026313;28;20041;-62
2022/09/22 10:25:48;;;;;;;4.28;2.05;;;;;;;;;;5036218;28;20039;-62
2022/09/22 10:28:14;;;;;;;5.68;2.15;;;;;;;;;;5049993;28;20033;-62
2022/09/22 10:30:41;;;;;;;3.88;1.90;;;;;;;;;;5049055;28;20029;-62
2022/09/22 10:33:12;;;;;;;3.40;2.10;;;;;;;;;;5050106;28;20052;-62
2022/09/22 10:35:43;;;;;;;3.13;1.90;;;;;;;;;;5041738;28;20022;-63
2022/09/22 10:38:21;;;;;;;4.28;1.83;;;;;;;;;;5028899;28;20038;-63
2022/09/22 10:41:09;;;;;;;2.78;1.65;;;;;;;;;;5023663;28;20036;-63
2022/09/22 10:43:49;;;;;;;3.72;1.45;;;;;;;;;;5031396;28;20034;-62
2022/09/22 10:46:33;;;;;;;2.40;1.52;;;;;;;;;;5024110;28;20033;-61
2022/09/22 10:49:07;;;;;;;2.85;1.33;;;;;;;;;;5054885;28;20048;-61
2022/09/22 10:52:08;;;;;;;4.10;1.70;;;;;;;;;;5047631;28;20021;-60
2022/09/22 10:54:51;;;;;;;6.63;1.77;;;;;;;;;;5053293;28;20033;-64
2022/09/22 10:57:30;;;;;;;2.50;1.50;;;;;;;;;;5053770;28;20246;-64
2022/09/22 11:00:10;;;;;;;5.57;1.70;;;;;;;;;;5047825;28;20025;-63
2022/09/22 11:02:48;;;;;;;3.78;1.63;;;;;;;;;;5027776;28;20417;-63
2022/09/22 11:14:04;;;;;;;2.55;1.42;;;;;;;;;;5054229;28;20489;-62
2022/09/22 11:17:11;;;;;;;3.45;1.55;;;;;;;;;;5037349;28;20097;-64
2022/09/22 11:20:06;;;;;;;3.42;1.65;;;;;;;;;;5014386;28;20045;-60
2022/09/22 11:22:50;;;;;;;3.35;1.60;;;;;;;;;;5048911;28;20040;-62
2022/09/22 11:25:47;;;;;;;3.90;1.50;;;;;;;;;;5053085;28;20032;-61
2022/09/22 11:28:28;;;;;;;2.42;1.60;;;;;;;;;;5025064;28;20041;-62
2022/09/22 11:30:56;;;;;;;;;;;;;;;;;;5036425;28;20025;-63
2022/09/22 11:33:39;;;;;;;2.35;1.40;;;;;;;;;;5041670;28;19959;-62
2022/09/22 11:36:33;;;;;;;2.17;1.40;;;;;;;;;;5037633;28;20041;-60
2022/09/22 11:39:14;;;;;;;5.32;1.58;;;;;;;;;;5034080;28;20034;-62
2022/09/22 11:41:44;;;;;;;2.42;1.60;;;;;;;;;;5043057;28;20060;-63
2022/09/22 11:44:29;;;;;;;3.25;1.45;;;;;;;;;;5037841;28;20454;-63
2022/09/22 11:47:01;;;;;;;3.47;1.35;;;;;;;;;;5043488;28;20091;-63
2022/09/22 11:49:26;;;;;;;3.17;1.40;;;;;;;;;;5034881;28;20393;-62
2022/09/22 11:52:04;;;;;;;2.08;1.08;;;;;;;;;;5042894;28;20029;-62
2022/09/22 11:54:29;;;;;;;2.65;1.30;;;;;;;;;;5054637;28;20057;-63
2022/09/22 11:57:01;;;;;;;4.07;1.40;;;;;;;;;;5031850;28;20084;-62
2022/09/22 11:59:32;;;;;;;2.20;1.30;;;;;;;;;;5027481;28;20063;-62
2022/09/22 12:02:03;;;;;;;1.65;1.30;;;;;;;;;;5045793;28;20025;-62
2022/09/22 12:04:34;;;;;;;3.83;1.23;;;;;;;;;;5050059;28;20112;-63
2022/09/22 12:07:02;;;;;;;4.40;1.50;;;;;;;;;;5040098;28;20116;-62
2022/09/22 12:09:47;;;;;;;2.95;1.58;;;;;;;;;;5034503;28;20052;-63
2022/09/22 12:12:18;;;;;;;2.25;1.55;;;;;;;;;;5041928;28;20441;-64
2022/09/22 12:14:52;;;;;;;1.70;1.50;;;;;;;;;;5031790;28;20052;-64
2022/09/22 12:17:28;;;;;;;2.00;1.30;;;;;;;;;;5012410;28;20112;-64
2022/09/22 12:20:04;;;;;;;3.10;1.38;;;;;;;;;;5035915;28;20148;-67
2022/09/22 12:22:49;;;;;;;3.88;1.50;;;;;;;;;;5053385;28;20474;-67
2022/09/22 12:25:49;;;;;;;3.55;1.50;;;;;;;;;;5044896;28;20033;-67
2022/09/22 12:28:21;;;;;;;2.55;1.40;;;;;;;;;;5052192;28;20025;-67
2022/09/22 12:31:04;;;;;;;2.83;1.50;;;;;;;;;;5051726;28;20043;-66
2022/09/22 12:33:32;;;;;;;4.28;1.85;;;;;;;;;;5051715;28;20079;-67
2022/09/22 12:35:58;;;;;;;2.13;1.33;;;;;;;;;;5033934;28;20029;-68
2022/09/22 12:38:24;;;;;;;2.97;1.30;;;;;;;;;;5047610;28;20040;-63
2022/09/22 12:40:53;;;;;;;2.22;1.50;;;;;;;;;;5045443;28;20025;-63
2022/09/22 12:43:22;;;;;;;3.20;1.40;;;;;;;;;;5036936;28;20032;-63
2022/09/22 12:45:49;;;;;;;1.65;1.20;;;;;;;;;;5045060;28;20036;-67
2022/09/22 12:48:18;;;;;;;2.10;1.20;;;;;;;;;;5045523;28;20060;-65
2022/09/22 12:50:44;;;;;;;3.67;1.20;;;;;;;;;;5030623;28;20156;-64
2022/09/22 12:53:21;;;;;;;2.08;1.10;;;;;;;;;;5031158;28;20041;-65
2022/09/22 12:55:56;;;;;;;3.03;1.30;;;;;;;;;;5032298;28;20458;-65
2022/09/22 12:58:25;;;;;;;2.50;1.10;;;;;;;;;;5029552;28;20025;-65
2022/09/22 13:00:55;;;;;;;4.32;1.08;;;;;;;;;;5033888;28;20033;-66
2022/09/22 13:03:28;;;;;;;2.55;1.17;;;;;;;;;;5024252;28;20113;-67
2022/09/22 13:06:03;;;;;;;1.70;1.15;;;;;;;;;;5052376;28;20080;-68
2022/09/22 13:08:29;;;;;;;2.13;1.10;;;;;;;;;;5033311;28;20466;-67
2022/09/22 13:11:02;;;;;;;1.77;1.15;;;;;;;;;;5039566;28;20036;-66
2022/09/22 13:13:30;;;;;;;2.35;1.25;;;;;;;;;;5038804;28;20067;-67
2022/09/22 13:16:01;;;;;;;1.63;1.02;;;;;;;;;;5019083;28;20120;-67
2022/09/22 13:18:38;;;;;;;1.35;1.10;;;;;;;;;;5011855;28;20037;-67
2022/09/22 13:21:12;;;;;;;1.95;1.02;;;;;;;;;;5044495;28;20482;-65
2022/09/22 13:23:38;;;;;;;3.40;1.20;;;;;;;;;;5012225;28;20093;-65
2022/09/22 13:26:11;;;;;;;1.90;1.08;;;;;;;;;;5011677;28;20451;-65
2022/09/22 13:28:37;;;;;;;2.47;1.30;;;;;;;;;;5048875;28;20106;-66
2022/09/22 13:31:10;;;;;;;1.38;1.00;;;;;;;;;;5034422;28;20458;-65
2022/09/22 13:33:36;;;;;;;1.15;0.90;;;;;;;;;;5036698;28;20037;-65
2022/09/22 13:36:04;;;;;;;1.35;1.08;;;;;;;;;;5019358;28;20045;-68
2022/09/22 13:38:33;;;;;;;1.30;1.00;;;;;;;;;;5011762;28;20036;-66
2022/09/22 13:40:59;;;;;;;3.10;1.10;;;;;;;;;;5021348;28;20533;-65
2022/09/22 13:43:35;;;;;;;1.30;1.08;;;;;;;;;;5022011;28;20033;-65
2022/09/22 13:46:02;;;;;;;2.42;1.10;;;;;;;;;;5039759;28;20036;-68
2022/09/22 13:48:33;;;;;;;1.30;1.08;;;;;;;;;;5039036;28;20053;-66
2022/09/22 13:51:03;;;;;;;1.30;1.00;;;;;;;;;;5024770;28;20037;-64
2022/09/22 13:53:29;;;;;;;1.30;1.20;;;;;;;;;;5025819;28;20101;-70
2022/09/22 13:55:56;;;;;;;2.78;1.17;;;;;;;;;;5042967;28;20484;-64
2022/09/22 13:58:41;;;;;;;1.17;1.00;;;;;;;;;;5021598;28;20639;-65
2022/09/22 14:01:16;;;;;;;2.42;1.13;;;;;;;;;;5029697;28;20111;-65
2022/09/22 14:03:41;;;;;;;2.28;1.10;;;;;;;;;;5038648;28;20037;-64
2022/09/22 14:06:11;;;;;;;3.05;1.20;;;;;;;;;;5022570;28;20095;-65
2022/09/22 14:08:37;;;;;;;1.15;1.00;;;;;;;;;;5026243;28;20036;-63
2022/09/22 14:11:11;;;;;;;1.83;1.10;;;;;;;;;;5050729;28;20037;-63
2022/09/22 14:13:41;;;;;;;4.13;1.40;;;;;;;;;;5048648;28;20029;-64
2022/09/22 14:16:23;;;;;;;1.88;1.42;;;;;;;;;;5017919;28;20034;-67
2022/09/22 14:19:11;;;;;;;2.55;1.20;;;;;;;;;;5034584;28;20036;-63
2022/09/22 14:22:04;;;;;;;1.27;1.13;;;;;;;;;;5035674;28;20470;-64
2022/09/22 14:24:36;;;;;;;1.70;1.20;;;;;;;;;;5051380;28;20049;-63
2022/09/22 14:27:04;;;;;;;1.92;1.05;;;;;;;;;;5014865;28;20490;-64
2022/09/22 14:29:34;;;;;;;2.63;1.30;;;;;;;;;;5035847;28;20040;-62
2022/09/22 14:32:22;;;;;;;2.70;1.50;;;;;;;;;;5035011;28;20033;-63
2022/09/22 14:34:50;;;;;;;4.32;1.30;;;;;;;;;;5029448;28;20099;-63
2022/09/22 14:37:28;;;;;;;1.25;1.15;;;;;;;;;;5018684;28;20026;-64
2022/09/22 14:39:55;;;;;;;1.13;1.02;;;;;;;;;;5055104;28;20528;-63
2022/09/22 14:42:29;;;;;;;1.33;1.02;;;;;;;;;;5053429;28;20075;-63
2022/09/22 14:45:24;;;;;;;3.17;1.20;;;;;;;;;;5046396;28;20069;-63
2022/09/22 14:48:12;;;;;;;1.40;1.10;;;;;;;;;;5008145;28;20110;-63
2022/09/22 14:50:53;;;;;;;1.45;1.10;;;;;;;;;;5055037;28;20102;-63
2022/09/22 14:53:26;;;;;;;2.03;1.20;;;;;;;;;;5043377;28;20381;-64
2022/09/22 14:55:58;;;;;;;1.50;1.30;;;;;;;;;;5028561;28;20033;-63
2022/09/22 14:58:26;;;;;;;1.52;1.40;;;;;;;;;;5041906;28;20033;-62
2022/09/22 15:04:16;;;;;;;2.17;1.40;;;;;;;;;;4984538;28;20049;-64
2022/09/22 15:06:44;;;;;;;1.50;1.30;;;;;;;;;;4990274;28;20527;-63
2022/09/22 15:09:21;;;;;;;1.30;1.20;;;;;;;;;;4988398;28;20422;-63
2022/09/22 15:11:55;;;;;;;2.15;1.40;;;;;;;;;;4989425;28;20066;-63
2022/09/22 15:14:34;;;;;;;2.05;1.40;;;;;;;;;;4980261;28;20389;-64
2022/09/22 15:19:55;;;;;;;3.63;1.42;;;;;;;;;;4963269;28;20057;-61
2022/09/22 15:22:20;;;;;;;2.08;1.35;;;;;;;;;;4989092;28;20050;-63
2022/09/22 15:24:46;;;;;;;1.75;1.20;;;;;;;;;;4986035;28;20046;-63